sensor_id;sensor_type;location;lat;lon;timestamp;P1;durP1;ratioP1;P2;durP2;ratioP2
9541;SDS011;4809;48.224;8.572;2022-11-11T00:00:44;10.87;;;5.93;;
9541;SDS011;4809;48.224;8.572;2022-11-11T00:03:10;12.60;;;8.40;;
9541;SDS011;4809;48.224;8.572;2022-11-11T00:05:36;19.17;;;10.37;;
9541;SDS011;4809;48.224;8.572;2022-11-11T00:08:01;13.10;;;8.30;;
9541;SDS011;4809;48.224;8.572;2022-11-11T00:10:28;14.67;;;7.97;;
9541;SDS011;4809;48.224;8.572;2022-11-11T00:13:00;10.80;;;6.53;;
9541;SDS011;4809;48.224;8.572;2022-11-11T00:15:27;8.40;;;5.80;;
9541;SDS011;4809;48.224;8.572;2022-11-11T00:17:53;8.37;;;5.50;;
9541;SDS011;4809;48.224;8.572;2022-11-11T00:20:38;8.00;;;5.20;;
9541;SDS011;4809;48.224;8.572;2022-11-11T00:23:26;7.30;;;4.60;;
9541;SDS011;4809;48.224;8.572;2022-11-11T00:26:12;6.37;;;4.70;;
9541;SDS011;4809;48.224;8.572;2022-11-11T00:28:38;6.97;;;4.53;;
9541;SDS011;4809;48.224;8.572;2022-11-11T00:31:06;6.77;;;4.27;;
9541;SDS011;4809;48.224;8.572;2022-11-11T00:33:33;7.70;;;5.40;;
9541;SDS011;4809;48.224;8.572;2022-11-11T00:35:59;8.83;;;5.60;;
9541;SDS011;4809;48.224;8.572;2022-11-11T00:38:25;8.13;;;5.10;;
9541;SDS011;4809;48.224;8.572;2022-11-11T00:41:19;7.70;;;4.70;;
9541;SDS011;4809;48.224;8.572;2022-11-11T00:43:46;6.67;;;5.27;;
9541;SDS011;4809;48.224;8.572;2022-11-11T00:46:12;10.07;;;7.63;;
9541;SDS011;4809;48.224;8.572;2022-11-11T00:48:58;13.47;;;9.83;;
9541;SDS011;4809;48.224;8.572;2022-11-11T00:51:42;13.13;;;9.93;;
9541;SDS011;4809;48.224;8.572;2022-11-11T00:54:08;13.40;;;10.10;;
9541;SDS011;4809;48.224;8.572;2022-11-11T00:56:34;12.57;;;9.40;;
9541;SDS011;4809;48.224;8.572;2022-11-11T00:59:01;10.80;;;8.30;;
9541;SDS011;4809;48.224;8.572;2022-11-11T01:01:30;8.53;;;6.90;;
9541;SDS011;4809;48.224;8.572;2022-11-11T01:03:57;7.50;;;6.10;;
9541;SDS011;4809;48.224;8.572;2022-11-11T01:06:23;8.07;;;6.43;;
9541;SDS011;4809;48.224;8.572;2022-11-11T01:08:49;10.57;;;7.00;;
9541;SDS011;4809;48.224;8.572;2022-11-11T01:11:16;13.23;;;9.13;;
9541;SDS011;4809;48.224;8.572;2022-11-11T01:13:43;13.23;;;8.67;;
9541;SDS011;4809;48.224;8.572;2022-11-11T01:16:13;14.97;;;9.43;;
9541;SDS011;4809;48.224;8.572;2022-11-11T01:18:41;12.30;;;7.57;;
9541;SDS011;4809;48.224;8.572;2022-11-11T01:21:09;9.90;;;6.47;;
9541;SDS011;4809;48.224;8.572;2022-11-11T01:23:39;8.07;;;6.20;;
9541;SDS011;4809;48.224;8.572;2022-11-11T01:26:16;7.60;;;5.73;;
9541;SDS011;4809;48.224;8.572;2022-11-11T01:28:50;6.13;;;5.27;;
9541;SDS011;4809;48.224;8.572;2022-11-11T01:31:17;7.57;;;5.20;;
9541;SDS011;4809;48.224;8.572;2022-11-11T01:33:44;7.17;;;5.40;;
9541;SDS011;4809;48.224;8.572;2022-11-11T01:36:31;6.27;;;5.23;;
9541;SDS011;4809;48.224;8.572;2022-11-11T01:38:57;8.57;;;5.70;;
9541;SDS011;4809;48.224;8.572;2022-11-11T01:41:26;7.33;;;5.63;;
9541;SDS011;4809;48.224;8.572;2022-11-11T01:46:54;7.23;;;5.90;;
9541;SDS011;4809;48.224;8.572;2022-11-11T01:49:33;7.47;;;5.70;;
9541;SDS011;4809;48.224;8.572;2022-11-11T01:55:09;8.60;;;5.80;;
9541;SDS011;4809;48.224;8.572;2022-11-11T02:00:12;6.27;;;5.13;;
9541;SDS011;4809;48.224;8.572;2022-11-11T02:03:22;6.90;;;5.03;;
9541;SDS011;4809;48.224;8.572;2022-11-11T02:05:30;6.70;;;5.30;;
9541;SDS011;4809;48.224;8.572;2022-11-11T02:08:18;6.60;;;5.00;;
9541;SDS011;4809;48.224;8.572;2022-11-11T02:11:03;6.03;;;4.57;;
9541;SDS011;4809;48.224;8.572;2022-11-11T02:13:29;5.93;;;4.37;;
9541;SDS011;4809;48.224;8.572;2022-11-11T02:16:15;6.50;;;4.50;;
9541;SDS011;4809;48.224;8.572;2022-11-11T02:18:41;5.60;;;4.20;;
9541;SDS011;4809;48.224;8.572;2022-11-11T02:21:08;5.20;;;4.10;;
9541;SDS011;4809;48.224;8.572;2022-11-11T02:26:24;5.50;;;4.03;;
9541;SDS011;4809;48.224;8.572;2022-11-11T02:28:50;6.10;;;4.13;;
9541;SDS011;4809;48.224;8.572;2022-11-11T02:31:17;5.83;;;3.90;;
9541;SDS011;4809;48.224;8.572;2022-11-11T02:33:43;5.17;;;3.67;;
9541;SDS011;4809;48.224;8.572;2022-11-11T02:36:09;4.97;;;3.77;;
9541;SDS011;4809;48.224;8.572;2022-11-11T02:38:39;4.07;;;3.40;;
9541;SDS011;4809;48.224;8.572;2022-11-11T02:41:04;4.10;;;3.27;;
9541;SDS011;4809;48.224;8.572;2022-11-11T02:43:49;4.87;;;3.60;;
9541;SDS011;4809;48.224;8.572;2022-11-11T02:46:14;4.37;;;3.60;;
9541;SDS011;4809;48.224;8.572;2022-11-11T02:48:40;4.40;;;3.20;;
9541;SDS011;4809;48.224;8.572;2022-11-11T02:51:06;5.37;;;2.90;;
9541;SDS011;4809;48.224;8.572;2022-11-11T02:53:32;2.83;;;2.33;;
9541;SDS011;4809;48.224;8.572;2022-11-11T02:55:58;3.60;;;2.37;;
9541;SDS011;4809;48.224;8.572;2022-11-11T02:58:23;3.87;;;2.30;;
9541;SDS011;4809;48.224;8.572;2022-11-11T03:00:49;3.93;;;2.50;;
9541;SDS011;4809;48.224;8.572;2022-11-11T03:03:15;2.83;;;2.20;;
9541;SDS011;4809;48.224;8.572;2022-11-11T03:05:40;3.27;;;2.50;;
9541;SDS011;4809;48.224;8.572;2022-11-11T03:08:06;2.90;;;2.40;;
9541;SDS011;4809;48.224;8.572;2022-11-11T03:10:32;2.77;;;2.47;;
9541;SDS011;4809;48.224;8.572;2022-11-11T03:12:58;3.83;;;2.60;;
9541;SDS011;4809;48.224;8.572;2022-11-11T03:15:23;5.33;;;2.60;;
9541;SDS011;4809;48.224;8.572;2022-11-11T03:17:49;2.47;;;2.27;;
9541;SDS011;4809;48.224;8.572;2022-11-11T03:20:16;3.20;;;2.60;;
9541;SDS011;4809;48.224;8.572;2022-11-11T03:23:08;4.37;;;2.90;;
9541;SDS011;4809;48.224;8.572;2022-11-11T03:25:39;3.50;;;2.87;;
9541;SDS011;4809;48.224;8.572;2022-11-11T03:28:15;2.97;;;2.67;;
9541;SDS011;4809;48.224;8.572;2022-11-11T03:30:44;3.73;;;2.80;;
9541;SDS011;4809;48.224;8.572;2022-11-11T03:33:11;4.00;;;3.10;;
9541;SDS011;4809;48.224;8.572;2022-11-11T03:35:37;3.63;;;3.10;;
9541;SDS011;4809;48.224;8.572;2022-11-11T03:38:04;3.70;;;2.47;;
9541;SDS011;4809;48.224;8.572;2022-11-11T03:40:44;4.43;;;3.00;;
9541;SDS011;4809;48.224;8.572;2022-11-11T03:43:14;4.93;;;3.00;;
9541;SDS011;4809;48.224;8.572;2022-11-11T03:45:41;4.03;;;2.83;;
9541;SDS011;4809;48.224;8.572;2022-11-11T03:48:07;3.40;;;3.10;;
9541;SDS011;4809;48.224;8.572;2022-11-11T03:50:33;3.90;;;3.30;;
9541;SDS011;4809;48.224;8.572;2022-11-11T03:52:59;5.23;;;2.90;;
9541;SDS011;4809;48.224;8.572;2022-11-11T03:55:25;3.67;;;3.00;;
9541;SDS011;4809;48.224;8.572;2022-11-11T03:57:51;4.40;;;3.00;;
9541;SDS011;4809;48.224;8.572;2022-11-11T04:00:21;3.43;;;2.70;;
9541;SDS011;4809;48.224;8.572;2022-11-11T04:02:48;2.73;;;2.40;;
9541;SDS011;4809;48.224;8.572;2022-11-11T04:05:32;2.70;;;2.50;;
9541;SDS011;4809;48.224;8.572;2022-11-11T04:08:18;2.53;;;2.17;;
9541;SDS011;4809;48.224;8.572;2022-11-11T04:11:07;3.10;;;2.40;;
9541;SDS011;4809;48.224;8.572;2022-11-11T04:13:35;4.07;;;2.63;;
9541;SDS011;4809;48.224;8.572;2022-11-11T04:16:21;2.93;;;2.40;;
9541;SDS011;4809;48.224;8.572;2022-11-11T04:18:47;2.50;;;2.30;;
9541;SDS011;4809;48.224;8.572;2022-11-11T04:21:31;2.70;;;2.10;;
9541;SDS011;4809;48.224;8.572;2022-11-11T04:24:09;2.23;;;2.00;;
9541;SDS011;4809;48.224;8.572;2022-11-11T04:27:02;3.67;;;2.23;;
9541;SDS011;4809;48.224;8.572;2022-11-11T04:29:29;2.00;;;1.90;;
9541;SDS011;4809;48.224;8.572;2022-11-11T04:32:03;2.50;;;2.30;;
9541;SDS011;4809;48.224;8.572;2022-11-11T04:34:50;2.93;;;2.20;;
9541;SDS011;4809;48.224;8.572;2022-11-11T04:37:20;3.57;;;2.37;;
9541;SDS011;4809;48.224;8.572;2022-11-11T04:39:47;4.33;;;2.63;;
9541;SDS011;4809;48.224;8.572;2022-11-11T04:42:32;2.90;;;2.30;;
9541;SDS011;4809;48.224;8.572;2022-11-11T04:44:58;2.80;;;2.37;;
9541;SDS011;4809;48.224;8.572;2022-11-11T04:47:57;2.90;;;2.40;;
9541;SDS011;4809;48.224;8.572;2022-11-11T04:50:30;2.77;;;2.40;;
9541;SDS011;4809;48.224;8.572;2022-11-11T04:53:00;2.97;;;2.20;;
9541;SDS011;4809;48.224;8.572;2022-11-11T04:55:28;3.00;;;2.33;;
9541;SDS011;4809;48.224;8.572;2022-11-11T04:58:13;3.60;;;2.33;;
9541;SDS011;4809;48.224;8.572;2022-11-11T05:00:39;3.53;;;2.50;;
9541;SDS011;4809;48.224;8.572;2022-11-11T05:03:05;3.87;;;2.87;;
9541;SDS011;4809;48.224;8.572;2022-11-11T05:05:44;4.53;;;3.10;;
9541;SDS011;4809;48.224;8.572;2022-11-11T05:08:30;3.30;;;2.90;;
9541;SDS011;4809;48.224;8.572;2022-11-11T05:11:16;3.90;;;2.80;;
9541;SDS011;4809;48.224;8.572;2022-11-11T05:13:42;4.63;;;3.33;;
9541;SDS011;4809;48.224;8.572;2022-11-11T05:16:27;4.93;;;3.63;;
9541;SDS011;4809;48.224;8.572;2022-11-11T05:19:14;4.20;;;3.13;;
9541;SDS011;4809;48.224;8.572;2022-11-11T05:22:01;4.40;;;3.33;;
9541;SDS011;4809;48.224;8.572;2022-11-11T05:24:34;3.97;;;3.23;;
9541;SDS011;4809;48.224;8.572;2022-11-11T05:27:18;3.50;;;3.20;;
9541;SDS011;4809;48.224;8.572;2022-11-11T05:29:45;8.30;;;6.70;;
9541;SDS011;4809;48.224;8.572;2022-11-11T05:32:14;6.97;;;6.27;;
9541;SDS011;4809;48.224;8.572;2022-11-11T05:34:42;10.50;;;9.40;;
9541;SDS011;4809;48.224;8.572;2022-11-11T05:37:07;7.20;;;6.50;;
9541;SDS011;4809;48.224;8.572;2022-11-11T05:39:33;9.17;;;7.57;;
9541;SDS011;4809;48.224;8.572;2022-11-11T05:41:58;8.03;;;6.90;;
9541;SDS011;4809;48.224;8.572;2022-11-11T05:44:24;7.90;;;6.10;;
9541;SDS011;4809;48.224;8.572;2022-11-11T05:46:50;6.43;;;5.57;;
9541;SDS011;4809;48.224;8.572;2022-11-11T05:49:15;8.00;;;7.03;;
9541;SDS011;4809;48.224;8.572;2022-11-11T05:51:44;7.23;;;5.77;;
9541;SDS011;4809;48.224;8.572;2022-11-11T05:54:10;6.00;;;5.10;;
9541;SDS011;4809;48.224;8.572;2022-11-11T05:56:39;5.03;;;3.77;;
9541;SDS011;4809;48.224;8.572;2022-11-11T05:59:06;6.23;;;3.27;;
9541;SDS011;4809;48.224;8.572;2022-11-11T06:01:32;4.83;;;3.70;;
9541;SDS011;4809;48.224;8.572;2022-11-11T06:03:58;6.83;;;4.80;;
9541;SDS011;4809;48.224;8.572;2022-11-11T06:06:23;6.23;;;3.87;;
9541;SDS011;4809;48.224;8.572;2022-11-11T06:08:49;4.50;;;3.53;;
9541;SDS011;4809;48.224;8.572;2022-11-11T06:11:15;4.10;;;3.63;;
9541;SDS011;4809;48.224;8.572;2022-11-11T06:13:41;4.90;;;3.60;;
9541;SDS011;4809;48.224;8.572;2022-11-11T06:16:07;5.20;;;3.30;;
9541;SDS011;4809;48.224;8.572;2022-11-11T06:18:33;5.20;;;2.90;;
9541;SDS011;4809;48.224;8.572;2022-11-11T06:20:58;4.30;;;3.00;;
9541;SDS011;4809;48.224;8.572;2022-11-11T06:23:25;3.40;;;3.10;;
9541;SDS011;4809;48.224;8.572;2022-11-11T06:25:52;5.23;;;3.30;;
9541;SDS011;4809;48.224;8.572;2022-11-11T06:28:37;4.57;;;3.20;;
9541;SDS011;4809;48.224;8.572;2022-11-11T06:31:03;4.90;;;3.30;;
9541;SDS011;4809;48.224;8.572;2022-11-11T06:33:31;4.53;;;3.50;;
9541;SDS011;4809;48.224;8.572;2022-11-11T06:35:58;5.73;;;4.00;;
9541;SDS011;4809;48.224;8.572;2022-11-11T06:38:23;6.17;;;4.50;;
9541;SDS011;4809;48.224;8.572;2022-11-11T06:40:49;18.60;;;15.27;;
9541;SDS011;4809;48.224;8.572;2022-11-11T06:43:14;15.10;;;12.67;;
9541;SDS011;4809;48.224;8.572;2022-11-11T06:45:40;18.63;;;15.00;;
9541;SDS011;4809;48.224;8.572;2022-11-11T06:48:06;16.37;;;13.43;;
9541;SDS011;4809;48.224;8.572;2022-11-11T06:50:32;15.23;;;10.73;;
9541;SDS011;4809;48.224;8.572;2022-11-11T06:53:04;13.40;;;9.53;;
9541;SDS011;4809;48.224;8.572;2022-11-11T06:55:40;9.73;;;7.07;;
9541;SDS011;4809;48.224;8.572;2022-11-11T06:58:10;8.93;;;5.60;;
9541;SDS011;4809;48.224;8.572;2022-11-11T07:00:38;6.67;;;4.57;;
9541;SDS011;4809;48.224;8.572;2022-11-11T07:03:04;5.50;;;3.83;;
9541;SDS011;4809;48.224;8.572;2022-11-11T07:05:31;3.77;;;3.30;;
9541;SDS011;4809;48.224;8.572;2022-11-11T07:08:04;5.90;;;3.00;;
9541;SDS011;4809;48.224;8.572;2022-11-11T07:10:35;4.93;;;3.00;;
9541;SDS011;4809;48.224;8.572;2022-11-11T07:13:03;4.40;;;2.70;;
9541;SDS011;4809;48.224;8.572;2022-11-11T07:15:32;2.90;;;2.50;;
9541;SDS011;4809;48.224;8.572;2022-11-11T07:17:58;3.20;;;2.60;;
9541;SDS011;4809;48.224;8.572;2022-11-11T07:20:24;3.57;;;2.77;;
9541;SDS011;4809;48.224;8.572;2022-11-11T07:22:50;5.17;;;3.20;;
9541;SDS011;4809;48.224;8.572;2022-11-11T07:25:15;4.37;;;3.13;;
9541;SDS011;4809;48.224;8.572;2022-11-11T07:27:41;3.03;;;2.67;;
9541;SDS011;4809;48.224;8.572;2022-11-11T07:30:08;4.17;;;2.83;;
9541;SDS011;4809;48.224;8.572;2022-11-11T07:32:35;4.63;;;2.87;;
9541;SDS011;4809;48.224;8.572;2022-11-11T07:35:02;5.60;;;2.90;;
9541;SDS011;4809;48.224;8.572;2022-11-11T07:37:29;3.30;;;2.70;;
9541;SDS011;4809;48.224;8.572;2022-11-11T07:40:00;4.53;;;2.90;;
9541;SDS011;4809;48.224;8.572;2022-11-11T07:42:25;3.90;;;2.80;;
9541;SDS011;4809;48.224;8.572;2022-11-11T07:44:51;4.30;;;3.00;;
9541;SDS011;4809;48.224;8.572;2022-11-11T07:47:16;2.77;;;2.47;;
9541;SDS011;4809;48.224;8.572;2022-11-11T07:49:42;4.07;;;2.53;;
9541;SDS011;4809;48.224;8.572;2022-11-11T07:52:08;2.77;;;2.47;;
9541;SDS011;4809;48.224;8.572;2022-11-11T07:54:33;4.67;;;2.40;;
9541;SDS011;4809;48.224;8.572;2022-11-11T07:56:59;3.90;;;2.67;;
9541;SDS011;4809;48.224;8.572;2022-11-11T07:59:24;6.37;;;4.57;;
9541;SDS011;4809;48.224;8.572;2022-11-11T08:01:50;10.17;;;7.73;;
9541;SDS011;4809;48.224;8.572;2022-11-11T08:04:15;7.67;;;5.93;;
9541;SDS011;4809;48.224;8.572;2022-11-11T08:06:41;10.27;;;6.57;;
9541;SDS011;4809;48.224;8.572;2022-11-11T08:09:07;8.52;;;6.05;;
9541;SDS011;4809;48.224;8.572;2022-11-11T08:11:32;8.02;;;6.18;;
9541;SDS011;4809;48.224;8.572;2022-11-11T08:14:17;7.78;;;5.65;;
9541;SDS011;4809;48.224;8.572;2022-11-11T08:16:42;7.47;;;5.50;;
9541;SDS011;4809;48.224;8.572;2022-11-11T08:19:08;9.38;;;4.97;;
9541;SDS011;4809;48.224;8.572;2022-11-11T08:21:33;6.63;;;4.72;;
9541;SDS011;4809;48.224;8.572;2022-11-11T08:23:59;8.55;;;6.57;;
9541;SDS011;4809;48.224;8.572;2022-11-11T08:26:24;8.13;;;5.95;;
9541;SDS011;4809;48.224;8.572;2022-11-11T08:28:51;9.50;;;6.20;;
9541;SDS011;4809;48.224;8.572;2022-11-11T08:31:17;9.43;;;5.60;;
9541;SDS011;4809;48.224;8.572;2022-11-11T08:33:43;9.35;;;6.10;;
9541;SDS011;4809;48.224;8.572;2022-11-11T08:36:09;13.20;;;9.07;;
9541;SDS011;4809;48.224;8.572;2022-11-11T08:38:35;14.85;;;10.45;;
9541;SDS011;4809;48.224;8.572;2022-11-11T08:41:06;17.23;;;11.68;;
9541;SDS011;4809;48.224;8.572;2022-11-11T08:43:32;16.75;;;10.60;;
9541;SDS011;4809;48.224;8.572;2022-11-11T08:46:01;13.63;;;9.23;;
9541;SDS011;4809;48.224;8.572;2022-11-11T08:48:29;14.80;;;8.90;;
9541;SDS011;4809;48.224;8.572;2022-11-11T08:50:56;11.43;;;7.63;;
9541;SDS011;4809;48.224;8.572;2022-11-11T08:53:22;9.85;;;6.47;;
9541;SDS011;4809;48.224;8.572;2022-11-11T08:55:48;9.02;;;6.88;;
9541;SDS011;4809;48.224;8.572;2022-11-11T08:58:13;10.63;;;8.15;;
9541;SDS011;4809;48.224;8.572;2022-11-11T09:00:39;7.95;;;6.55;;
9541;SDS011;4809;48.224;8.572;2022-11-11T09:03:06;8.88;;;5.45;;
9541;SDS011;4809;48.224;8.572;2022-11-11T09:05:34;7.68;;;6.22;;
9541;SDS011;4809;48.224;8.572;2022-11-11T09:08:02;7.57;;;5.90;;
9541;SDS011;4809;48.224;8.572;2022-11-11T09:10:30;10.95;;;7.05;;
9541;SDS011;4809;48.224;8.572;2022-11-11T09:12:56;12.00;;;6.60;;
9541;SDS011;4809;48.224;8.572;2022-11-11T09:15:22;8.25;;;6.00;;
9541;SDS011;4809;48.224;8.572;2022-11-11T09:17:48;7.22;;;5.53;;
9541;SDS011;4809;48.224;8.572;2022-11-11T09:20:14;7.82;;;5.50;;
9541;SDS011;4809;48.224;8.572;2022-11-11T09:22:41;6.50;;;5.05;;
9541;SDS011;4809;48.224;8.572;2022-11-11T09:25:10;8.93;;;5.97;;
9541;SDS011;4809;48.224;8.572;2022-11-11T09:27:36;6.55;;;5.10;;
9541;SDS011;4809;48.224;8.572;2022-11-11T09:30:03;7.45;;;5.40;;
9541;SDS011;4809;48.224;8.572;2022-11-11T09:32:29;8.50;;;5.45;;
9541;SDS011;4809;48.224;8.572;2022-11-11T09:34:55;7.55;;;5.88;;
9541;SDS011;4809;48.224;8.572;2022-11-11T09:37:21;7.93;;;5.63;;
9541;SDS011;4809;48.224;8.572;2022-11-11T09:39:47;6.28;;;5.50;;
9541;SDS011;4809;48.224;8.572;2022-11-11T09:50:22;6.03;;;4.55;;
9541;SDS011;4809;48.224;8.572;2022-11-11T09:52:56;4.95;;;4.15;;
9541;SDS011;4809;48.224;8.572;2022-11-11T09:55:43;6.72;;;4.43;;
9541;SDS011;4809;48.224;8.572;2022-11-11T10:01:35;9.02;;;4.25;;
9541;SDS011;4809;48.224;8.572;2022-11-11T10:06:36;5.88;;;4.00;;
9541;SDS011;4809;48.224;8.572;2022-11-11T10:09:16;7.32;;;4.18;;
9541;SDS011;4809;48.224;8.572;2022-11-11T10:14:44;5.85;;;4.43;;
9541;SDS011;4809;48.224;8.572;2022-11-11T10:17:23;6.35;;;4.50;;
9541;SDS011;4809;48.224;8.572;2022-11-11T10:22:45;8.18;;;4.70;;
9541;SDS011;4809;48.224;8.572;2022-11-11T10:27:51;6.22;;;4.35;;
9541;SDS011;4809;48.224;8.572;2022-11-11T10:30:20;7.93;;;4.68;;
9541;SDS011;4809;48.224;8.572;2022-11-11T10:32:52;7.00;;;4.90;;
9541;SDS011;4809;48.224;8.572;2022-11-11T10:35:28;7.15;;;4.40;;
9541;SDS011;4809;48.224;8.572;2022-11-11T10:40:56;6.38;;;4.70;;
9541;SDS011;4809;48.224;8.572;2022-11-11T10:43:28;6.35;;;4.40;;
9541;SDS011;4809;48.224;8.572;2022-11-11T10:46:05;6.78;;;4.10;;
9541;SDS011;4809;48.224;8.572;2022-11-11T10:48:43;6.40;;;4.28;;
9541;SDS011;4809;48.224;8.572;2022-11-11T10:51:16;5.38;;;4.35;;
9541;SDS011;4809;48.224;8.572;2022-11-11T10:53:47;6.88;;;4.40;;
9541;SDS011;4809;48.224;8.572;2022-11-11T10:59:12;7.00;;;4.47;;
9541;SDS011;4809;48.224;8.572;2022-11-11T11:02:22;5.65;;;3.92;;
9541;SDS011;4809;48.224;8.572;2022-11-11T11:04:51;4.95;;;4.25;;
9541;SDS011;4809;48.224;8.572;2022-11-11T11:07:46;4.57;;;4.03;;
9541;SDS011;4809;48.224;8.572;2022-11-11T11:10:19;5.65;;;4.35;;
9541;SDS011;4809;48.224;8.572;2022-11-11T11:12:58;6.22;;;4.00;;
9541;SDS011;4809;48.224;8.572;2022-11-11T11:15:29;4.68;;;4.18;;
9541;SDS011;4809;48.224;8.572;2022-11-11T11:18:11;5.88;;;4.18;;
9541;SDS011;4809;48.224;8.572;2022-11-11T11:20:49;4.65;;;4.15;;
9541;SDS011;4809;48.224;8.572;2022-11-11T11:23:33;6.45;;;3.40;;
9541;SDS011;4809;48.224;8.572;2022-11-11T11:26:00;3.97;;;3.58;;
9541;SDS011;4809;48.224;8.572;2022-11-11T11:28:27;4.85;;;3.53;;
9541;SDS011;4809;48.224;8.572;2022-11-11T11:30:57;5.97;;;3.63;;
9541;SDS011;4809;48.224;8.572;2022-11-11T11:33:24;5.53;;;3.25;;
9541;SDS011;4809;48.224;8.572;2022-11-11T11:35:50;5.22;;;3.83;;
9541;SDS011;4809;48.224;8.572;2022-11-11T11:38:16;5.65;;;3.97;;
9541;SDS011;4809;48.224;8.572;2022-11-11T11:40:52;5.05;;;3.90;;
9541;SDS011;4809;48.224;8.572;2022-11-11T11:43:23;5.15;;;3.88;;
9541;SDS011;4809;48.224;8.572;2022-11-11T11:45:53;5.30;;;4.10;;
9541;SDS011;4809;48.224;8.572;2022-11-11T11:56:45;4.43;;;4.03;;
9541;SDS011;4809;48.224;8.572;2022-11-11T11:59:16;5.40;;;4.20;;
9541;SDS011;4809;48.224;8.572;2022-11-11T12:05:07;3.67;;;3.10;;
9541;SDS011;4809;48.224;8.572;2022-11-11T12:07:38;5.78;;;3.20;;
9541;SDS011;4809;48.224;8.572;2022-11-11T12:15:38;5.25;;;3.30;;
9541;SDS011;4809;48.224;8.572;2022-11-11T12:18:11;4.40;;;3.28;;
9541;SDS011;4809;48.224;8.572;2022-11-11T12:21:01;5.38;;;3.42;;
9541;SDS011;4809;48.224;8.572;2022-11-11T12:28:56;3.88;;;3.47;;
9541;SDS011;4809;48.224;8.572;2022-11-11T12:34:17;5.10;;;3.63;;
9541;SDS011;4809;48.224;8.572;2022-11-11T12:39:57;5.50;;;4.50;;
9541;SDS011;4809;48.224;8.572;2022-11-11T12:45:47;5.45;;;4.50;;
9541;SDS011;4809;48.224;8.572;2022-11-11T12:48:37;5.75;;;4.72;;
9541;SDS011;4809;48.224;8.572;2022-11-11T12:51:21;5.68;;;4.43;;
9541;SDS011;4809;48.224;8.572;2022-11-11T12:54:12;5.40;;;3.88;;
9541;SDS011;4809;48.224;8.572;2022-11-11T13:11:05;5.28;;;4.40;;
9541;SDS011;4809;48.224;8.572;2022-11-11T13:15:59;4.72;;;4.03;;
9541;SDS011;4809;48.224;8.572;2022-11-11T13:19:10;4.22;;;3.80;;
9541;SDS011;4809;48.224;8.572;2022-11-11T13:21:21;4.45;;;3.60;;
9541;SDS011;4809;48.224;8.572;2022-11-11T13:24:11;4.50;;;3.70;;
9541;SDS011;4809;48.224;8.572;2022-11-11T13:26:40;4.00;;;3.42;;
9541;SDS011;4809;48.224;8.572;2022-11-11T13:31:53;5.82;;;4.30;;
9541;SDS011;4809;48.224;8.572;2022-11-11T13:34:20;7.57;;;4.63;;
9541;SDS011;4809;48.224;8.572;2022-11-11T13:36:48;6.80;;;4.80;;
9541;SDS011;4809;48.224;8.572;2022-11-11T13:39:59;6.22;;;4.80;;
9541;SDS011;4809;48.224;8.572;2022-11-11T13:42:08;6.10;;;4.38;;
9541;SDS011;4809;48.224;8.572;2022-11-11T13:44:47;6.53;;;4.90;;
9541;SDS011;4809;48.224;8.572;2022-11-11T13:47:17;7.00;;;5.20;;
9541;SDS011;4809;48.224;8.572;2022-11-11T13:49:50;8.23;;;5.35;;
9541;SDS011;4809;48.224;8.572;2022-11-11T13:52:21;6.75;;;5.50;;
9541;SDS011;4809;48.224;8.572;2022-11-11T13:54:53;6.70;;;5.30;;
9541;SDS011;4809;48.224;8.572;2022-11-11T13:57:29;5.72;;;5.03;;
9541;SDS011;4809;48.224;8.572;2022-11-11T14:02:31;5.47;;;4.97;;
9541;SDS011;4809;48.224;8.572;2022-11-11T14:12:42;6.72;;;6.00;;
9541;SDS011;4809;48.224;8.572;2022-11-11T14:18:03;6.03;;;5.35;;
9541;SDS011;4809;48.224;8.572;2022-11-11T14:20:55;6.53;;;5.50;;
9541;SDS011;4809;48.224;8.572;2022-11-11T14:23:22;6.45;;;5.03;;
9541;SDS011;4809;48.224;8.572;2022-11-11T14:28:39;6.05;;;5.40;;
9541;SDS011;4809;48.224;8.572;2022-11-11T14:36:52;6.43;;;5.57;;
9541;SDS011;4809;48.224;8.572;2022-11-11T14:39:34;6.22;;;5.63;;
9541;SDS011;4809;48.224;8.572;2022-11-11T14:44:58;7.25;;;6.13;;
9541;SDS011;4809;48.224;8.572;2022-11-11T14:47:38;7.45;;;6.40;;
9541;SDS011;4809;48.224;8.572;2022-11-11T14:52:52;6.68;;;5.90;;
9541;SDS011;4809;48.224;8.572;2022-11-11T15:00:22;6.85;;;6.15;;
9541;SDS011;4809;48.224;8.572;2022-11-11T15:02:59;7.22;;;6.38;;
9541;SDS011;4809;48.224;8.572;2022-11-11T15:08:34;7.85;;;6.65;;
9541;SDS011;4809;48.224;8.572;2022-11-11T15:25:40;8.25;;;7.25;;
9541;SDS011;4809;48.224;8.572;2022-11-11T15:31:43;8.55;;;7.18;;
9541;SDS011;4809;48.224;8.572;2022-11-11T15:35:03;9.20;;;7.40;;
9541;SDS011;4809;48.224;8.572;2022-11-11T15:37:38;9.52;;;6.82;;
9541;SDS011;4809;48.224;8.572;2022-11-11T15:40:05;8.65;;;7.18;;
9541;SDS011;4809;48.224;8.572;2022-11-11T15:42:33;10.23;;;7.50;;
9541;SDS011;4809;48.224;8.572;2022-11-11T15:45:05;9.95;;;7.53;;
9541;SDS011;4809;48.224;8.572;2022-11-11T15:48:00;10.10;;;7.70;;
9541;SDS011;4809;48.224;8.572;2022-11-11T15:50:32;9.15;;;7.40;;
9541;SDS011;4809;48.224;8.572;2022-11-11T15:53:00;9.68;;;7.40;;
9541;SDS011;4809;48.224;8.572;2022-11-11T15:55:28;11.40;;;8.48;;
9541;SDS011;4809;48.224;8.572;2022-11-11T15:58:08;9.55;;;7.55;;
9541;SDS011;4809;48.224;8.572;2022-11-11T16:00:51;9.68;;;7.32;;
9541;SDS011;4809;48.224;8.572;2022-11-11T16:03:19;10.05;;;7.53;;
9541;SDS011;4809;48.224;8.572;2022-11-11T16:06:05;10.07;;;7.90;;
9541;SDS011;4809;48.224;8.572;2022-11-11T16:08:33;9.95;;;7.53;;
9541;SDS011;4809;48.224;8.572;2022-11-11T16:10:59;10.85;;;8.07;;
9541;SDS011;4809;48.224;8.572;2022-11-11T16:16:05;10.93;;;8.02;;
9541;SDS011;4809;48.224;8.572;2022-11-11T16:18:59;10.50;;;7.97;;
9541;SDS011;4809;48.224;8.572;2022-11-11T16:24:31;14.18;;;10.50;;
9541;SDS011;4809;48.224;8.572;2022-11-11T16:27:04;16.00;;;12.65;;
9541;SDS011;4809;48.224;8.572;2022-11-11T16:29:38;16.00;;;12.32;;
9541;SDS011;4809;48.224;8.572;2022-11-11T16:32:46;15.05;;;10.98;;
9541;SDS011;4809;48.224;8.572;2022-11-11T16:34:53;18.45;;;14.48;;
9541;SDS011;4809;48.224;8.572;2022-11-11T16:37:19;16.48;;;13.13;;
9541;SDS011;4809;48.224;8.572;2022-11-11T16:39:46;13.82;;;10.48;;
9541;SDS011;4809;48.224;8.572;2022-11-11T16:42:16;14.43;;;11.13;;
9541;SDS011;4809;48.224;8.572;2022-11-11T16:44:54;16.98;;;11.73;;
9541;SDS011;4809;48.224;8.572;2022-11-11T16:50:07;15.55;;;11.25;;
9541;SDS011;4809;48.224;8.572;2022-11-11T16:55:27;14.00;;;10.23;;
9541;SDS011;4809;48.224;8.572;2022-11-11T17:00:41;31.10;;;11.45;;
9541;SDS011;4809;48.224;8.572;2022-11-11T17:03:08;15.10;;;10.70;;
9541;SDS011;4809;48.224;8.572;2022-11-11T17:08:27;15.00;;;10.52;;
9541;SDS011;4809;48.224;8.572;2022-11-11T17:11:04;21.83;;;11.85;;
9541;SDS011;4809;48.224;8.572;2022-11-11T17:13:34;14.10;;;10.32;;
9541;SDS011;4809;48.224;8.572;2022-11-11T17:16:01;12.65;;;9.27;;
9541;SDS011;4809;48.224;8.572;2022-11-11T17:18:31;12.88;;;9.45;;
9541;SDS011;4809;48.224;8.572;2022-11-11T17:20:58;13.63;;;8.93;;
9541;SDS011;4809;48.224;8.572;2022-11-11T17:23:24;14.93;;;10.02;;
9541;SDS011;4809;48.224;8.572;2022-11-11T17:25:55;13.15;;;10.02;;
9541;SDS011;4809;48.224;8.572;2022-11-11T17:28:22;12.10;;;8.95;;
9541;SDS011;4809;48.224;8.572;2022-11-11T17:30:48;24.20;;;9.57;;
9541;SDS011;4809;48.224;8.572;2022-11-11T17:33:14;14.27;;;8.63;;
9541;SDS011;4809;48.224;8.572;2022-11-11T17:35:48;14.13;;;9.50;;
9541;SDS011;4809;48.224;8.572;2022-11-11T17:38:14;17.30;;;8.95;;
9541;SDS011;4809;48.224;8.572;2022-11-11T17:40:44;15.25;;;9.45;;
9541;SDS011;4809;48.224;8.572;2022-11-11T17:43:13;14.25;;;9.52;;
9541;SDS011;4809;48.224;8.572;2022-11-11T17:45:39;43.85;;;10.27;;
9541;SDS011;4809;48.224;8.572;2022-11-11T17:48:08;30.25;;;10.10;;
9541;SDS011;4809;48.224;8.572;2022-11-11T17:50:35;27.25;;;9.75;;
9541;SDS011;4809;48.224;8.572;2022-11-11T17:53:03;24.90;;;9.95;;
9541;SDS011;4809;48.224;8.572;2022-11-11T17:55:30;38.63;;;10.65;;
9541;SDS011;4809;48.224;8.572;2022-11-11T17:57:57;17.13;;;10.27;;
9541;SDS011;4809;48.224;8.572;2022-11-11T18:00:24;23.08;;;9.93;;
9541;SDS011;4809;48.224;8.572;2022-11-11T18:02:50;25.75;;;11.50;;
9541;SDS011;4809;48.224;8.572;2022-11-11T18:05:16;14.50;;;9.65;;
9541;SDS011;4809;48.224;8.572;2022-11-11T18:07:41;12.68;;;9.02;;
9541;SDS011;4809;48.224;8.572;2022-11-11T18:10:07;14.18;;;10.30;;
9541;SDS011;4809;48.224;8.572;2022-11-11T18:12:37;23.60;;;10.77;;
9541;SDS011;4809;48.224;8.572;2022-11-11T18:15:05;24.50;;;10.00;;